createdAt,value
2019-02-16T00:01:10.480Z,99.90
2019-02-16T00:03:40.198Z,99.90
2019-02-16T00:06:10.423Z,99.90
2019-02-16T00:08:40.152Z,99.90
2019-02-16T00:11:10.422Z,99.90
2019-02-16T00:13:40.200Z,99.90
2019-02-16T00:16:10.407Z,99.90
2019-02-16T00:18:40.150Z,99.90
2019-02-16T00:21:10.392Z,99.90
2019-02-16T00:23:40.270Z,99.90
2019-02-16T00:26:10.452Z,99.90
2019-02-16T00:28:40.190Z,99.90
2019-02-16T00:31:10.440Z,99.90
2019-02-16T00:33:40.234Z,99.90
2019-02-16T00:36:10.458Z,99.90
2019-02-16T00:38:39.851Z,99.90
2019-02-16T00:41:10.458Z,99.90
2019-02-16T00:43:40.205Z,99.90
2019-02-16T00:46:10.439Z,99.90
2019-02-16T00:48:39.913Z,99.90
2019-02-16T00:51:13.711Z,99.90
2019-02-16T00:53:41.612Z,99.90
2019-02-16T00:56:11.405Z,99.90
2019-02-16T00:58:40.800Z,99.90
2019-02-16T01:01:10.552Z,99.90
2019-02-16T01:03:40.263Z,99.90
2019-02-16T01:06:10.484Z,99.90
2019-02-16T01:08:39.933Z,99.90
2019-02-16T01:11:10.531Z,99.90
2019-02-16T01:13:40.233Z,99.90
2019-02-16T01:16:10.551Z,99.90
2019-02-16T01:18:40.296Z,99.90
2019-02-16T01:21:10.541Z,99.90
2019-02-16T01:23:40.259Z,99.90
2019-02-16T01:26:10.539Z,99.90
2019-02-16T01:28:40.261Z,99.90
2019-02-16T01:31:10.512Z,99.90
2019-02-16T01:33:39.895Z,99.90
2019-02-16T01:36:10.514Z,99.90
2019-02-16T01:38:39.904Z,99.90
2019-02-16T01:41:10.543Z,99.90
2019-02-16T01:43:40.281Z,99.90
2019-02-16T01:46:10.539Z,99.90
2019-02-16T01:48:40.191Z,99.90
2019-02-16T01:51:10.558Z,99.90
2019-02-16T01:53:40.348Z,99.90
2019-02-16T01:56:10.550Z,99.90
2019-02-16T01:58:40.298Z,99.90
2019-02-16T02:01:10.581Z,99.90
2019-02-16T02:03:40.303Z,99.90
2019-02-16T02:06:10.584Z,99.90
2019-02-16T02:08:40.322Z,99.90
2019-02-16T02:11:10.594Z,99.90
2019-02-16T02:13:40.314Z,99.90
2019-02-16T02:16:10.673Z,99.90
2019-02-16T02:18:40.416Z,99.90
2019-02-16T02:21:10.633Z,99.90
2019-02-16T02:23:40.386Z,99.90
2019-02-16T02:26:10.578Z,99.90
2019-02-16T02:28:40.018Z,99.90
2019-02-16T02:31:10.723Z,99.90
2019-02-16T02:33:40.392Z,99.90
2019-02-16T02:36:10.699Z,99.90
2019-02-16T02:38:40.369Z,99.90
2019-02-16T02:41:10.619Z,99.90
2019-02-16T02:43:39.984Z,99.90
2019-02-16T02:46:10.644Z,99.90
2019-02-16T02:48:40.029Z,99.90
2019-02-16T02:51:10.707Z,99.90
2019-02-16T02:53:40.449Z,99.90
2019-02-16T02:56:10.656Z,99.90
2019-02-16T02:58:40.423Z,99.90
2019-02-16T03:01:10.668Z,99.90
2019-02-16T03:03:40.427Z,99.90
2019-02-16T03:06:10.699Z,99.90
2019-02-16T03:08:40.058Z,99.90
2019-02-16T03:11:10.701Z,99.90
2019-02-16T03:13:40.058Z,99.90
2019-02-16T03:16:10.725Z,99.90
2019-02-16T03:18:40.462Z,99.90
2019-02-16T03:21:10.703Z,99.90
2019-02-16T03:23:40.486Z,99.90
2019-02-16T03:26:42.472Z,99.90
2019-02-16T03:29:36.108Z,99.90
2019-02-16T03:32:17.705Z,99.90
2019-02-16T03:35:02.734Z,99.90
2019-02-16T03:37:56.551Z,99.90
2019-02-16T03:40:26.246Z,99.90
2019-02-16T03:42:55.743Z,99.90
2019-02-16T03:45:25.123Z,99.90
2019-02-16T03:47:54.551Z,99.90
2019-02-16T03:50:24.032Z,99.90
2019-02-16T03:52:53.541Z,99.90
2019-02-16T03:55:23.048Z,99.90
2019-02-16T03:57:52.556Z,99.90
2019-02-16T04:00:21.981Z,99.90
2019-02-16T04:02:51.577Z,99.90
2019-02-16T04:05:21.068Z,99.90
2019-02-16T04:07:50.596Z,99.90
2019-02-16T04:10:20.038Z,99.90
2019-02-16T04:12:49.585Z,99.90
2019-02-16T04:15:19.023Z,99.90
2019-02-16T04:17:48.580Z,99.90
2019-02-16T04:20:18.148Z,99.90
2019-02-16T04:22:47.599Z,99.90
2019-02-16T04:25:17.041Z,99.90
2019-02-16T04:27:46.596Z,99.90
2019-02-16T04:30:16.034Z,99.90
2019-02-16T04:32:45.609Z,99.90
2019-02-16T04:35:15.038Z,99.90
2019-02-16T04:37:44.618Z,99.90
2019-02-16T04:40:13.981Z,99.90
2019-02-16T04:42:43.603Z,99.90
2019-02-16T04:45:13.037Z,99.90
2019-02-16T04:47:42.618Z,99.90
2019-02-16T04:50:12.051Z,99.90
2019-02-16T04:52:41.631Z,99.90
2019-02-16T04:55:11.388Z,99.90
2019-02-16T04:57:40.839Z,99.90
2019-02-16T05:00:10.942Z,99.90
2019-02-16T05:02:40.732Z,99.90
2019-02-16T05:05:10.771Z,99.90
2019-02-16T05:07:40.218Z,99.90
2019-02-16T05:10:10.852Z,99.90
2019-02-16T05:12:40.649Z,99.90
2019-02-16T05:15:10.875Z,99.90
2019-02-16T05:17:40.292Z,99.90
2019-02-16T05:20:10.867Z,99.90
2019-02-16T05:22:44.511Z,99.90
2019-02-16T05:25:11.677Z,99.90
2019-02-16T05:27:41.195Z,99.90
2019-02-16T05:30:11.133Z,99.90
2019-02-16T05:32:40.691Z,99.90
2019-02-16T05:35:10.920Z,99.90
2019-02-16T05:37:40.707Z,99.90
2019-02-16T05:40:10.906Z,99.90
2019-02-16T05:42:40.391Z,99.90
2019-02-16T05:45:10.912Z,99.90
2019-02-16T05:47:40.698Z,99.90
2019-02-16T05:50:10.934Z,99.90
2019-02-16T05:52:40.640Z,99.90
2019-02-16T05:55:10.922Z,99.90
2019-02-16T05:57:40.319Z,99.90
2019-02-16T06:00:12.723Z,99.90
2019-02-16T06:02:42.202Z,99.90
2019-02-16T06:05:11.876Z,99.90
2019-02-16T06:07:41.326Z,99.90
2019-02-16T06:10:10.990Z,99.90
2019-02-16T06:12:40.679Z,99.90
2019-02-16T06:15:10.960Z,99.90
2019-02-16T06:17:40.769Z,99.90
2019-02-16T06:20:10.975Z,99.90
2019-02-16T06:22:40.684Z,99.90
2019-02-16T06:25:11.009Z,99.90
2019-02-16T06:27:40.768Z,99.90
2019-02-16T06:30:10.990Z,99.90
2019-02-16T06:32:40.683Z,99.90
2019-02-16T06:35:18.331Z,99.90
2019-02-16T06:37:47.763Z,99.90
2019-02-16T06:40:17.174Z,99.90
2019-02-16T06:42:46.775Z,99.90
2019-02-16T06:45:16.452Z,99.90
2019-02-16T06:47:46.041Z,99.90
2019-02-16T06:50:15.935Z,99.90
2019-02-16T06:52:45.438Z,99.90
2019-02-16T06:55:14.947Z,99.90
2019-02-16T06:57:46.016Z,99.90
2019-02-16T07:00:17.102Z,99.90
2019-02-16T07:02:46.790Z,99.90
2019-02-16T07:05:16.247Z,99.90
2019-02-16T07:07:45.801Z,99.90
2019-02-16T07:10:15.329Z,99.90
2019-02-16T07:12:44.805Z,99.90
2019-02-16T07:15:14.254Z,99.90
2019-02-16T07:17:51.095Z,99.90
2019-02-16T07:20:21.967Z,99.90
2019-02-16T07:22:51.393Z,99.90
2019-02-16T07:25:20.986Z,99.90
2019-02-16T07:27:50.423Z,99.90
2019-02-16T07:30:20.004Z,99.90
2019-02-16T07:32:49.447Z,99.90
2019-02-16T07:35:19.004Z,99.90
2019-02-16T07:37:48.505Z,99.90
2019-02-16T07:40:18.039Z,99.90
2019-02-16T07:42:49.255Z,99.90
2019-02-16T07:45:31.546Z,99.90
2019-02-16T07:48:11.739Z,99.90
2019-02-16T07:50:48.582Z,99.90
2019-02-16T07:53:19.640Z,99.90
2019-02-16T07:56:08.863Z,99.90
2019-02-16T07:58:42.595Z,99.90
2019-02-16T08:01:13.702Z,99.90
2019-02-16T08:03:44.811Z,99.90
2019-02-16T08:06:24.808Z,99.90
2019-02-16T08:08:55.873Z,99.90
2019-02-16T08:11:29.683Z,99.90
2019-02-16T08:14:06.780Z,99.90
2019-02-16T08:16:37.876Z,99.90
2019-02-16T08:19:08.945Z,99.90
2019-02-16T08:21:56.142Z,99.90
2019-02-16T08:24:33.568Z,99.90
2019-02-16T08:27:04.710Z,99.90
2019-02-16T08:29:44.729Z,99.90
2019-02-16T08:32:31.042Z,99.90
2019-02-16T08:35:02.210Z,99.90
2019-02-16T08:37:33.594Z,99.90
2019-02-16T08:40:04.601Z,99.90
2019-02-16T08:42:35.737Z,99.90
2019-02-16T08:45:08.671Z,99.90
2019-02-16T08:47:57.841Z,99.90
2019-02-16T08:50:29.566Z,99.00
2019-02-16T08:53:09.303Z,97.40
2019-02-16T08:55:47.090Z,99.00
2019-02-16T08:58:18.841Z,98.20
2019-02-16T09:00:49.964Z,97.60
2019-02-16T09:03:24.107Z,95.50
2019-02-16T09:05:58.463Z,95.70
2019-02-16T09:08:45.796Z,85.00
2019-02-16T09:11:17.457Z,93.70
2019-02-16T09:13:54.977Z,90.20
2019-02-16T09:16:42.456Z,81.40
2019-02-16T09:19:31.911Z,83.50
2019-02-16T09:22:14.911Z,80.20
2019-02-16T09:24:48.963Z,73.40
2019-02-16T09:27:36.224Z,70.50
2019-02-16T09:30:25.575Z,73.10
2019-02-16T09:32:56.771Z,72.00
2019-02-16T09:35:45.972Z,70.10
2019-02-16T09:38:20.407Z,70.40
2019-02-16T09:40:51.705Z,68.50
2019-02-16T09:43:22.879Z,64.70
2019-02-16T09:46:10.137Z,61.00
2019-02-16T09:48:41.207Z,58.70
2019-02-16T09:51:18.904Z,59.80
2019-02-16T09:53:50.175Z,59.20
2019-02-16T09:56:21.317Z,59.00
2019-02-16T09:59:10.514Z,58.20
2019-02-16T10:01:41.730Z,57.40
2019-02-16T10:04:15.966Z,56.80
2019-02-16T10:07:02.371Z,56.50
2019-02-16T10:09:36.412Z,56.30
2019-02-16T10:12:07.742Z,55.60
2019-02-16T10:14:44.826Z,54.30
2019-02-16T10:17:22.102Z,53.80
2019-02-16T10:19:53.186Z,53.10
2019-02-16T10:22:27.279Z,52.90
2019-02-16T10:24:58.732Z,52.60
2019-02-16T10:27:48.137Z,52.10
2019-02-16T10:30:22.463Z,51.70
2019-02-16T10:33:12.201Z,51.80
2019-02-16T10:35:43.399Z,51.80
2019-02-16T10:38:17.737Z,51.10
2019-02-16T10:40:54.518Z,50.60
2019-02-16T10:43:28.870Z,49.70
2019-02-16T10:46:16.188Z,48.70
2019-02-16T10:48:47.377Z,49.40
2019-02-16T10:51:19.119Z,50.00
2019-02-16T10:54:00.910Z,48.60
2019-02-16T10:56:52.360Z,47.50
2019-02-16T10:59:30.001Z,48.10
2019-02-16T11:02:03.691Z,47.40
2019-02-16T11:04:38.514Z,46.50
2019-02-16T11:07:27.788Z,47.50
2019-02-16T11:10:01.868Z,45.90
2019-02-16T11:12:33.157Z,47.10
2019-02-16T11:15:07.054Z,48.20
2019-02-16T11:17:47.305Z,48.60
2019-02-16T11:20:18.462Z,49.30
2019-02-16T11:22:52.545Z,48.10
2019-02-16T11:25:24.009Z,45.70
2019-02-16T11:27:55.211Z,45.20
2019-02-16T11:30:26.328Z,46.80
2019-02-16T11:32:57.522Z,46.80
2019-02-16T11:35:34.826Z,46.80
2019-02-16T11:38:06.028Z,46.20
2019-02-16T11:40:43.313Z,46.10
2019-02-16T11:43:14.454Z,45.20
2019-02-16T11:45:45.820Z,44.00
2019-02-16T11:48:33.133Z,44.00
2019-02-16T11:51:18.040Z,43.50
2019-02-16T11:53:57.941Z,42.80
2019-02-16T11:56:31.865Z,42.50
2019-02-16T11:59:20.857Z,41.10
2019-02-16T12:01:58.003Z,39.70
2019-02-16T12:04:32.186Z,38.80
2019-02-16T12:07:09.256Z,38.60
2019-02-16T12:09:46.471Z,38.20
2019-02-16T12:12:26.911Z,38.70
2019-02-16T12:14:58.064Z,37.80
2019-02-16T12:17:29.228Z,38.60
2019-02-16T12:20:03.402Z,39.10
2019-02-16T12:22:37.570Z,41.20
2019-02-16T12:25:12.032Z,41.80
2019-02-16T12:27:43.140Z,41.80
2019-02-16T12:30:30.335Z,41.70
2019-02-16T12:33:18.029Z,40.80
2019-02-16T12:35:49.193Z,40.20
2019-02-16T12:38:23.295Z,40.20
2019-02-16T12:40:54.565Z,41.10
2019-02-16T12:43:26.217Z,41.70
2019-02-16T12:46:06.243Z,41.70
2019-02-16T12:48:47.644Z,39.80
2019-02-16T12:51:37.241Z,40.40
2019-02-16T12:54:14.050Z,39.00
2019-02-16T12:56:51.034Z,38.80
2019-02-16T12:59:34.243Z,38.10
2019-02-16T13:02:08.177Z,37.40
2019-02-16T13:04:54.501Z,37.10
2019-02-16T13:07:31.038Z,37.40
2019-02-16T13:10:08.574Z,36.70
2019-02-16T13:12:40.052Z,33.10
2019-02-16T13:15:17.078Z,32.50
2019-02-16T13:17:51.321Z,32.10
2019-02-16T13:20:34.503Z,31.80
2019-02-16T13:23:05.743Z,32.30
2019-02-16T13:25:40.048Z,32.50
2019-02-16T13:28:26.348Z,31.00
2019-02-16T13:30:57.592Z,31.40
2019-02-16T13:33:29.126Z,31.90
2019-02-16T13:36:00.215Z,31.30
2019-02-16T13:38:34.375Z,31.00
2019-02-16T13:41:11.339Z,31.00
2019-02-16T13:43:42.471Z,30.70
2019-02-16T13:46:13.671Z,30.30
2019-02-16T13:48:45.143Z,30.00
2019-02-16T13:51:22.346Z,30.00
2019-02-16T13:53:53.546Z,29.30
2019-02-16T13:56:44.271Z,27.70
2019-02-16T13:59:23.507Z,26.50
2019-02-16T14:01:54.863Z,29.00
2019-02-16T14:04:34.877Z,26.40
2019-02-16T14:07:06.441Z,25.20
2019-02-16T14:09:40.340Z,24.30
2019-02-16T14:12:11.535Z,23.60
2019-02-16T14:14:44.732Z,23.60
2019-02-16T14:17:18.615Z,26.80
2019-02-16T14:19:48.236Z,23.80
2019-02-16T14:22:17.881Z,22.40
2019-02-16T14:24:49.778Z,22.90
2019-02-16T14:27:21.980Z,22.40
2019-02-16T14:29:52.209Z,24.40
2019-02-16T14:32:21.950Z,24.00
2019-02-16T14:34:51.821Z,25.50
2019-02-16T14:37:23.540Z,27.40
2019-02-16T14:39:53.600Z,27.40
2019-02-16T14:42:23.330Z,27.90
2019-02-16T14:44:52.912Z,27.40
2019-02-16T14:47:22.837Z,27.90
2019-02-16T14:49:52.964Z,28.80
2019-02-16T14:52:22.814Z,28.70
2019-02-16T14:54:52.960Z,28.90
2019-02-16T14:57:23.522Z,29.00
2019-02-16T14:59:53.086Z,28.70
2019-02-16T15:02:22.949Z,28.50
2019-02-16T15:04:52.951Z,28.30
2019-02-16T15:07:22.814Z,27.40
2019-02-16T15:09:52.578Z,27.40
2019-02-16T15:12:22.708Z,27.10
2019-02-16T15:14:56.042Z,27.10
2019-02-16T15:17:26.092Z,27.00
2019-02-16T15:20:02.537Z,28.20
2019-02-16T15:22:32.900Z,26.40
2019-02-16T15:25:02.902Z,26.20
2019-02-16T15:27:32.691Z,25.30
2019-02-16T15:30:02.826Z,25.10
2019-02-16T15:32:34.616Z,24.40
2019-02-16T15:35:04.915Z,23.80
2019-02-16T15:37:34.804Z,23.90
2019-02-16T15:40:05.864Z,23.70
2019-02-16T15:42:35.715Z,23.80
2019-02-16T15:45:11.603Z,24.20
2019-02-16T15:47:41.387Z,24.00
2019-02-16T15:50:15.329Z,24.40
2019-02-16T15:52:45.130Z,25.40
2019-02-16T15:55:14.960Z,25.10
2019-02-16T15:57:44.917Z,25.80
2019-02-16T16:00:27.019Z,26.20
2019-02-16T16:02:56.908Z,26.60
2019-02-16T16:05:26.607Z,27.40
2019-02-16T16:07:57.682Z,28.60
2019-02-16T16:10:38.268Z,30.30
2019-02-16T16:13:15.331Z,33.40
2019-02-16T16:15:58.547Z,35.20
2019-02-16T16:18:41.401Z,37.10
2019-02-16T16:21:22.579Z,38.90
2019-02-16T16:24:11.741Z,40.60
2019-02-16T16:26:48.583Z,41.60
2019-02-16T16:29:35.689Z,43.20
2019-02-16T16:32:10.164Z,44.10
2019-02-16T16:34:51.041Z,45.30
2019-02-16T16:37:38.459Z,45.50
2019-02-16T16:40:10.061Z,45.90
2019-02-16T16:42:49.798Z,49.20
2019-02-16T16:45:26.470Z,49.00
2019-02-16T16:48:00.522Z,49.50
2019-02-16T16:50:31.663Z,49.00
2019-02-16T16:53:11.931Z,48.30
2019-02-16T16:55:55.077Z,48.70
2019-02-16T16:58:32.132Z,49.20
2019-02-16T17:01:06.381Z,49.50
2019-02-16T17:03:43.108Z,51.20
2019-02-16T17:06:26.838Z,51.30
2019-02-16T17:08:57.956Z,51.00
2019-02-16T17:11:45.364Z,51.40
2019-02-16T17:14:16.490Z,51.80
2019-02-16T17:16:47.601Z,52.40
2019-02-16T17:19:27.499Z,52.60
2019-02-16T17:22:04.456Z,53.20
2019-02-16T17:24:35.536Z,54.00
2019-02-16T17:27:09.750Z,53.40
2019-02-16T17:29:46.542Z,54.20
2019-02-16T17:32:32.531Z,54.60
2019-02-16T17:35:03.606Z,55.10
2019-02-16T17:37:37.357Z,55.80
2019-02-16T17:40:09.040Z,56.10
2019-02-16T17:42:55.386Z,57.50
2019-02-16T17:45:32.538Z,58.60
2019-02-16T17:48:09.680Z,58.90
2019-02-16T17:50:40.716Z,59.40
2019-02-16T17:53:11.997Z,63.20
2019-02-16T17:55:43.358Z,64.20
2019-02-16T17:58:16.967Z,63.10
2019-02-16T18:00:48.565Z,65.00
2019-02-16T18:03:33.494Z,69.90
2019-02-16T18:06:07.094Z,69.50
2019-02-16T18:08:38.841Z,70.00
2019-02-16T18:11:12.824Z,90.60
2019-02-16T18:13:47.279Z,81.70
2019-02-16T18:16:21.451Z,79.40
2019-02-16T18:18:58.245Z,80.50
2019-02-16T18:21:32.213Z,84.30
2019-02-16T18:24:09.153Z,87.00
2019-02-16T18:26:56.786Z,87.70
2019-02-16T18:29:43.411Z,97.20
2019-02-16T18:32:33.177Z,95.50
2019-02-16T18:35:13.299Z,92.40
2019-02-16T18:37:44.477Z,96.80
2019-02-16T18:40:15.670Z,99.90
2019-02-16T18:43:03.202Z,99.90
2019-02-16T18:45:34.493Z,99.90
2019-02-16T18:48:27.052Z,98.90
2019-02-16T18:50:59.761Z,99.70
2019-02-16T18:53:39.431Z,99.90
2019-02-16T18:56:10.939Z,99.90
2019-02-16T18:58:58.565Z,99.90
2019-02-16T19:01:32.432Z,99.90
2019-02-16T19:04:12.419Z,99.90
2019-02-16T19:06:46.340Z,99.90
2019-02-16T19:09:17.587Z,99.90
2019-02-16T19:11:57.822Z,99.90
2019-02-16T19:14:28.955Z,99.90
2019-02-16T19:17:00.068Z,99.90
2019-02-16T19:19:37.117Z,99.90
2019-02-16T19:22:11.274Z,99.90
2019-02-16T19:24:42.483Z,99.90
2019-02-16T19:27:21.244Z,99.90
2019-02-16T19:29:55.242Z,99.90
2019-02-16T19:32:32.691Z,99.90
2019-02-16T19:35:03.773Z,99.90
2019-02-16T19:37:37.676Z,99.90
2019-02-16T19:40:18.205Z,99.90
2019-02-16T19:43:07.552Z,99.90
2019-02-16T19:45:40.525Z,99.90
2019-02-16T19:48:27.687Z,99.90
2019-02-16T19:51:01.484Z,99.90
2019-02-16T19:53:35.831Z,99.90
2019-02-16T19:56:10.152Z,99.90
2019-02-16T19:58:47.795Z,99.90
2019-02-16T20:01:18.894Z,99.90
2019-02-16T20:03:56.636Z,99.90
2019-02-16T20:06:48.740Z,99.90
2019-02-16T20:09:20.139Z,99.90
2019-02-16T20:12:08.150Z,99.90
2019-02-16T20:14:41.190Z,99.90
2019-02-16T20:17:13.795Z,99.90
2019-02-16T20:20:00.945Z,99.90
2019-02-16T20:22:48.884Z,99.90
2019-02-16T20:25:20.015Z,99.90
2019-02-16T20:27:53.641Z,99.90
2019-02-16T20:30:36.647Z,99.90
2019-02-16T20:33:13.891Z,99.90
2019-02-16T20:35:54.102Z,99.90
2019-02-16T20:38:25.299Z,99.90
2019-02-16T20:41:02.666Z,99.90
2019-02-16T20:43:45.610Z,99.90
2019-02-16T20:46:22.749Z,99.90
2019-02-16T20:49:09.800Z,99.90
2019-02-16T20:51:41.028Z,99.90
2019-02-16T20:54:13.074Z,99.90
2019-02-16T20:56:50.270Z,99.90
2019-02-16T20:59:40.954Z,99.90
2019-02-16T21:02:22.113Z,99.90
2019-02-16T21:04:53.272Z,99.90
2019-02-16T21:07:33.840Z,99.90
2019-02-16T21:10:08.263Z,99.90
2019-02-16T21:12:45.101Z,99.90
2019-02-16T21:15:22.246Z,99.90
2019-02-16T21:18:02.563Z,99.90
2019-02-16T21:20:49.795Z,99.90
2019-02-16T21:23:40.630Z,99.90
2019-02-16T21:26:36.519Z,99.90
2019-02-16T21:29:14.760Z,99.90
2019-02-16T21:31:57.959Z,99.90
2019-02-16T21:34:29.844Z,99.90
2019-02-16T21:37:02.828Z,99.90
2019-02-16T21:39:39.669Z,99.90
2019-02-16T21:42:10.856Z,99.90
2019-02-16T21:44:48.059Z,99.90
2019-02-16T21:47:27.979Z,99.90
2019-02-16T21:50:17.202Z,99.90
2019-02-16T21:52:57.543Z,99.90
2019-02-16T21:55:31.451Z,99.90
2019-02-16T21:58:08.297Z,99.90
2019-02-16T22:00:44.534Z,99.90
2019-02-16T22:03:27.936Z,99.90
2019-02-16T22:06:14.101Z,99.90
2019-02-16T22:08:56.598Z,99.90
2019-02-16T22:11:30.840Z,99.90
2019-02-16T22:14:02.796Z,99.90
2019-02-16T22:16:32.180Z,99.90
2019-02-16T22:19:01.651Z,99.90
2019-02-16T22:21:31.135Z,99.90
2019-02-16T22:24:00.953Z,99.70
2019-02-16T22:26:33.741Z,99.90
2019-02-16T22:29:03.203Z,99.90
2019-02-16T22:31:33.325Z,99.90
2019-02-16T22:34:06.950Z,99.90
2019-02-16T22:36:38.355Z,99.90
2019-02-16T22:39:08.191Z,99.90
2019-02-16T22:41:37.736Z,99.90
2019-02-16T22:44:07.298Z,99.90
2019-02-16T22:46:37.102Z,99.90
2019-02-16T22:49:06.557Z,99.90
2019-02-16T22:51:36.108Z,99.90
2019-02-16T22:54:05.653Z,99.90
2019-02-16T22:56:35.247Z,99.90
2019-02-16T22:59:04.833Z,99.90
2019-02-16T23:01:34.313Z,99.90
2019-02-16T23:04:03.805Z,99.90
2019-02-16T23:06:33.349Z,99.90
2019-02-16T23:09:04.670Z,99.90
2019-02-16T23:11:34.450Z,99.90
2019-02-16T23:14:04.114Z,99.90
2019-02-16T23:16:33.600Z,99.90
2019-02-16T23:19:03.397Z,99.90
2019-02-16T23:21:33.126Z,99.90
2019-02-16T23:24:02.551Z,99.90
2019-02-16T23:26:32.269Z,99.90
2019-02-16T23:29:01.636Z,99.90
2019-02-16T23:31:31.227Z,99.90
2019-02-16T23:34:00.653Z,99.90
2019-02-16T23:36:30.364Z,99.90
2019-02-16T23:38:59.748Z,99.90
2019-02-16T23:41:29.348Z,99.90
2019-02-16T23:43:58.712Z,99.90
2019-02-16T23:46:28.366Z,99.90
2019-02-16T23:48:57.792Z,99.90
2019-02-16T23:51:27.452Z,99.90
2019-02-16T23:53:57.163Z,99.90
2019-02-16T23:56:26.612Z,99.90
2019-02-16T23:58:56.208Z,99.90
